sensor_id;sensor_type;location;lat;lon;timestamp;temperature;humidity
13458;DHT22;6801;53.018;11.560;2024-01-07T00:00:45;1.80;73.70
13458;DHT22;6801;53.018;11.560;2024-01-07T00:03:12;1.80;73.90
13458;DHT22;6801;53.018;11.560;2024-01-07T00:05:40;1.80;73.80
13458;DHT22;6801;53.018;11.560;2024-01-07T00:08:07;1.80;73.90
13458;DHT22;6801;53.018;11.560;2024-01-07T00:10:34;1.80;74.00
13458;DHT22;6801;53.018;11.560;2024-01-07T00:13:01;1.80;73.90
13458;DHT22;6801;53.018;11.560;2024-01-07T00:15:28;1.80;74.20
13458;DHT22;6801;53.018;11.560;2024-01-07T00:17:55;1.70;74.60
13458;DHT22;6801;53.018;11.560;2024-01-07T00:20:22;1.80;73.70
13458;DHT22;6801;53.018;11.560;2024-01-07T00:22:51;1.70;73.90
13458;DHT22;6801;53.018;11.560;2024-01-07T00:25:18;1.80;74.00
13458;DHT22;6801;53.018;11.560;2024-01-07T00:27:45;1.70;73.90
13458;DHT22;6801;53.018;11.560;2024-01-07T00:30:12;1.80;74.00
13458;DHT22;6801;53.018;11.560;2024-01-07T00:32:39;1.70;73.80
13458;DHT22;6801;53.018;11.560;2024-01-07T00:35:07;1.70;73.50
13458;DHT22;6801;53.018;11.560;2024-01-07T00:37:35;1.70;73.70
13458;DHT22;6801;53.018;11.560;2024-01-07T00:40:04;1.60;73.90
13458;DHT22;6801;53.018;11.560;2024-01-07T00:42:32;1.60;73.60
13458;DHT22;6801;53.018;11.560;2024-01-07T00:44:59;1.60;73.30
13458;DHT22;6801;53.018;11.560;2024-01-07T00:47:26;1.60;74.30
13458;DHT22;6801;53.018;11.560;2024-01-07T00:49:53;1.60;74.50
13458;DHT22;6801;53.018;11.560;2024-01-07T00:52:20;1.60;73.80
13458;DHT22;6801;53.018;11.560;2024-01-07T00:54:48;1.60;73.30
13458;DHT22;6801;53.018;11.560;2024-01-07T00:57:17;1.70;73.50
13458;DHT22;6801;53.018;11.560;2024-01-07T00:59:44;1.70;73.20
13458;DHT22;6801;53.018;11.560;2024-01-07T01:02:10;1.70;72.70
13458;DHT22;6801;53.018;11.560;2024-01-07T01:04:38;1.60;72.50
13458;DHT22;6801;53.018;11.560;2024-01-07T01:07:06;1.60;72.90
13458;DHT22;6801;53.018;11.560;2024-01-07T01:09:34;1.60;73.00
13458;DHT22;6801;53.018;11.560;2024-01-07T01:12:01;1.60;73.40
13458;DHT22;6801;53.018;11.560;2024-01-07T01:14:29;1.60;73.00
13458;DHT22;6801;53.018;11.560;2024-01-07T01:16:56;1.50;72.90
13458;DHT22;6801;53.018;11.560;2024-01-07T01:19:24;1.50;72.90
13458;DHT22;6801;53.018;11.560;2024-01-07T01:21:51;1.50;72.90
13458;DHT22;6801;53.018;11.560;2024-01-07T01:24:17;1.50;73.40
13458;DHT22;6801;53.018;11.560;2024-01-07T01:26:46;1.50;72.60
13458;DHT22;6801;53.018;11.560;2024-01-07T01:29:13;1.50;72.80
13458;DHT22;6801;53.018;11.560;2024-01-07T01:31:41;1.40;72.70
13458;DHT22;6801;53.018;11.560;2024-01-07T01:34:08;1.40;72.90
13458;DHT22;6801;53.018;11.560;2024-01-07T01:36:35;1.30;72.80
13458;DHT22;6801;53.018;11.560;2024-01-07T01:39:02;1.30;73.30
13458;DHT22;6801;53.018;11.560;2024-01-07T01:41:29;1.40;73.80
13458;DHT22;6801;53.018;11.560;2024-01-07T01:43:57;1.40;73.50
13458;DHT22;6801;53.018;11.560;2024-01-07T01:46:24;1.30;73.40
13458;DHT22;6801;53.018;11.560;2024-01-07T01:48:53;1.30;73.40
13458;DHT22;6801;53.018;11.560;2024-01-07T01:51:20;1.20;73.80
13458;DHT22;6801;53.018;11.560;2024-01-07T01:53:48;1.20;73.70
13458;DHT22;6801;53.018;11.560;2024-01-07T01:56:17;1.20;73.20
13458;DHT22;6801;53.018;11.560;2024-01-07T01:58:46;1.20;73.60
13458;DHT22;6801;53.018;11.560;2024-01-07T02:01:13;1.30;73.10
13458;DHT22;6801;53.018;11.560;2024-01-07T02:03:40;1.30;73.10
13458;DHT22;6801;53.018;11.560;2024-01-07T02:06:09;1.30;73.10
13458;DHT22;6801;53.018;11.560;2024-01-07T02:08:37;1.30;72.70
13458;DHT22;6801;53.018;11.560;2024-01-07T02:11:25;1.20;72.70
13458;DHT22;6801;53.018;11.560;2024-01-07T02:13:52;1.20;73.60
13458;DHT22;6801;53.018;11.560;2024-01-07T02:16:19;1.20;73.30
13458;DHT22;6801;53.018;11.560;2024-01-07T02:18:46;1.20;73.10
13458;DHT22;6801;53.018;11.560;2024-01-07T02:21:15;1.20;72.70
13458;DHT22;6801;53.018;11.560;2024-01-07T02:23:42;1.10;73.10
13458;DHT22;6801;53.018;11.560;2024-01-07T02:26:10;1.10;72.70
13458;DHT22;6801;53.018;11.560;2024-01-07T02:28:37;1.10;72.60
13458;DHT22;6801;53.018;11.560;2024-01-07T02:31:04;1.10;72.80
13458;DHT22;6801;53.018;11.560;2024-01-07T02:33:31;1.10;72.80
13458;DHT22;6801;53.018;11.560;2024-01-07T02:35:59;1.00;72.90
13458;DHT22;6801;53.018;11.560;2024-01-07T02:38:26;1.00;72.70
13458;DHT22;6801;53.018;11.560;2024-01-07T02:40:53;1.00;72.40
13458;DHT22;6801;53.018;11.560;2024-01-07T02:43:21;1.00;72.60
13458;DHT22;6801;53.018;11.560;2024-01-07T02:45:48;1.00;72.10
13458;DHT22;6801;53.018;11.560;2024-01-07T02:48:15;1.00;72.10
13458;DHT22;6801;53.018;11.560;2024-01-07T02:50:42;1.00;72.10
13458;DHT22;6801;53.018;11.560;2024-01-07T02:53:08;0.90;72.70
13458;DHT22;6801;53.018;11.560;2024-01-07T02:55:38;0.80;72.90
13458;DHT22;6801;53.018;11.560;2024-01-07T02:58:05;0.80;73.40
13458;DHT22;6801;53.018;11.560;2024-01-07T03:00:33;0.80;73.50
13458;DHT22;6801;53.018;11.560;2024-01-07T03:03:00;0.80;73.30
13458;DHT22;6801;53.018;11.560;2024-01-07T03:05:27;0.90;72.80
13458;DHT22;6801;53.018;11.560;2024-01-07T03:07:58;0.80;72.80
13458;DHT22;6801;53.018;11.560;2024-01-07T03:10:25;0.80;72.80
13458;DHT22;6801;53.018;11.560;2024-01-07T03:12:52;0.70;72.90
13458;DHT22;6801;53.018;11.560;2024-01-07T03:15:19;0.70;73.30
13458;DHT22;6801;53.018;11.560;2024-01-07T03:17:47;0.70;73.40
13458;DHT22;6801;53.018;11.560;2024-01-07T03:20:14;0.60;73.80
13458;DHT22;6801;53.018;11.560;2024-01-07T03:22:41;0.80;73.30
13458;DHT22;6801;53.018;11.560;2024-01-07T03:25:08;0.60;73.50
13458;DHT22;6801;53.018;11.560;2024-01-07T03:27:35;0.70;73.80
13458;DHT22;6801;53.018;11.560;2024-01-07T03:30:03;0.70;73.90
13458;DHT22;6801;53.018;11.560;2024-01-07T03:32:30;0.70;73.60
13458;DHT22;6801;53.018;11.560;2024-01-07T03:34:58;0.60;73.90
13458;DHT22;6801;53.018;11.560;2024-01-07T03:37:25;0.70;73.90
13458;DHT22;6801;53.018;11.560;2024-01-07T03:39:52;0.60;74.10
13458;DHT22;6801;53.018;11.560;2024-01-07T03:42:19;0.60;74.20
13458;DHT22;6801;53.018;11.560;2024-01-07T03:44:46;0.60;74.40
13458;DHT22;6801;53.018;11.560;2024-01-07T03:47:13;0.60;74.00
13458;DHT22;6801;53.018;11.560;2024-01-07T03:49:39;0.70;74.00
13458;DHT22;6801;53.018;11.560;2024-01-07T03:52:08;0.70;74.10
13458;DHT22;6801;53.018;11.560;2024-01-07T03:54:35;0.70;73.60
13458;DHT22;6801;53.018;11.560;2024-01-07T03:57:02;0.80;73.70
13458;DHT22;6801;53.018;11.560;2024-01-07T03:59:29;0.80;73.60
13458;DHT22;6801;53.018;11.560;2024-01-07T04:01:57;0.80;73.60
13458;DHT22;6801;53.018;11.560;2024-01-07T04:04:24;0.80;73.60
13458;DHT22;6801;53.018;11.560;2024-01-07T04:06:51;1.00;72.70
13458;DHT22;6801;53.018;11.560;2024-01-07T04:09:19;1.00;72.20
13458;DHT22;6801;53.018;11.560;2024-01-07T04:11:47;1.00;72.10
13458;DHT22;6801;53.018;11.560;2024-01-07T04:14:15;1.00;72.20
13458;DHT22;6801;53.018;11.560;2024-01-07T04:16:42;1.00;72.50
13458;DHT22;6801;53.018;11.560;2024-01-07T04:19:09;1.00;72.10
13458;DHT22;6801;53.018;11.560;2024-01-07T04:21:36;1.00;72.00
13458;DHT22;6801;53.018;11.560;2024-01-07T04:24:03;1.00;72.40
13458;DHT22;6801;53.018;11.560;2024-01-07T04:26:31;0.90;72.70
13458;DHT22;6801;53.018;11.560;2024-01-07T04:28:58;0.90;73.30
13458;DHT22;6801;53.018;11.560;2024-01-07T04:31:25;0.80;73.10
13458;DHT22;6801;53.018;11.560;2024-01-07T04:33:52;0.80;73.50
13458;DHT22;6801;53.018;11.560;2024-01-07T04:36:19;0.70;73.90
13458;DHT22;6801;53.018;11.560;2024-01-07T04:38:46;0.70;74.40
13458;DHT22;6801;53.018;11.560;2024-01-07T04:41:13;0.80;73.80
13458;DHT22;6801;53.018;11.560;2024-01-07T04:43:42;0.70;74.10
13458;DHT22;6801;53.018;11.560;2024-01-07T04:46:10;0.80;73.80
13458;DHT22;6801;53.018;11.560;2024-01-07T04:48:37;0.70;74.20
13458;DHT22;6801;53.018;11.560;2024-01-07T04:51:04;0.70;75.00
13458;DHT22;6801;53.018;11.560;2024-01-07T04:53:31;0.80;74.40
13458;DHT22;6801;53.018;11.560;2024-01-07T04:55:58;0.80;74.30
13458;DHT22;6801;53.018;11.560;2024-01-07T04:58:25;0.80;74.30
13458;DHT22;6801;53.018;11.560;2024-01-07T05:00:53;0.80;73.80
13458;DHT22;6801;53.018;11.560;2024-01-07T05:03:20;0.80;74.20
13458;DHT22;6801;53.018;11.560;2024-01-07T05:05:47;0.80;75.30
13458;DHT22;6801;53.018;11.560;2024-01-07T05:08:14;0.80;75.70
13458;DHT22;6801;53.018;11.560;2024-01-07T05:10:41;0.80;75.20
13458;DHT22;6801;53.018;11.560;2024-01-07T05:13:08;0.80;75.70
13458;DHT22;6801;53.018;11.560;2024-01-07T05:15:35;0.80;76.30
13458;DHT22;6801;53.018;11.560;2024-01-07T05:18:07;0.80;76.40
13458;DHT22;6801;53.018;11.560;2024-01-07T05:20:34;0.80;76.60
13458;DHT22;6801;53.018;11.560;2024-01-07T05:23:01;0.80;76.50
13458;DHT22;6801;53.018;11.560;2024-01-07T05:25:28;0.80;76.70
13458;DHT22;6801;53.018;11.560;2024-01-07T05:27:55;0.80;76.60
13458;DHT22;6801;53.018;11.560;2024-01-07T05:30:22;0.80;76.80
13458;DHT22;6801;53.018;11.560;2024-01-07T05:32:48;0.80;77.00
13458;DHT22;6801;53.018;11.560;2024-01-07T05:35:17;0.80;77.20
13458;DHT22;6801;53.018;11.560;2024-01-07T05:37:44;0.80;77.20
13458;DHT22;6801;53.018;11.560;2024-01-07T05:40:11;0.80;77.10
13458;DHT22;6801;53.018;11.560;2024-01-07T05:42:38;0.70;77.00
13458;DHT22;6801;53.018;11.560;2024-01-07T05:45:06;0.70;77.10
13458;DHT22;6801;53.018;11.560;2024-01-07T05:47:33;0.70;77.10
13458;DHT22;6801;53.018;11.560;2024-01-07T05:50:00;0.80;77.30
13458;DHT22;6801;53.018;11.560;2024-01-07T05:52:29;0.80;77.10
13458;DHT22;6801;53.018;11.560;2024-01-07T05:54:56;0.80;77.20
13458;DHT22;6801;53.018;11.560;2024-01-07T05:57:23;0.80;77.20
13458;DHT22;6801;53.018;11.560;2024-01-07T05:59:50;0.80;77.20
13458;DHT22;6801;53.018;11.560;2024-01-07T06:02:17;0.80;77.40
13458;DHT22;6801;53.018;11.560;2024-01-07T06:04:44;0.90;76.10
13458;DHT22;6801;53.018;11.560;2024-01-07T06:07:11;0.90;76.20
13458;DHT22;6801;53.018;11.560;2024-01-07T06:09:39;0.90;75.80
13458;DHT22;6801;53.018;11.560;2024-01-07T06:12:07;0.90;76.20
13458;DHT22;6801;53.018;11.560;2024-01-07T06:14:34;0.90;76.20
13458;DHT22;6801;53.018;11.560;2024-01-07T06:17:01;0.80;76.60
13458;DHT22;6801;53.018;11.560;2024-01-07T06:19:29;0.90;76.50
13458;DHT22;6801;53.018;11.560;2024-01-07T06:21:56;0.90;76.20
13458;DHT22;6801;53.018;11.560;2024-01-07T06:24:23;0.90;76.20
13458;DHT22;6801;53.018;11.560;2024-01-07T06:26:51;0.80;76.60
13458;DHT22;6801;53.018;11.560;2024-01-07T06:29:18;0.80;76.80
13458;DHT22;6801;53.018;11.560;2024-01-07T06:31:46;0.80;77.10
13458;DHT22;6801;53.018;11.560;2024-01-07T06:34:14;0.80;76.80
13458;DHT22;6801;53.018;11.560;2024-01-07T06:36:41;0.80;76.90
13458;DHT22;6801;53.018;11.560;2024-01-07T06:39:08;0.80;76.90
13458;DHT22;6801;53.018;11.560;2024-01-07T06:41:35;0.90;77.00
13458;DHT22;6801;53.018;11.560;2024-01-07T06:44:04;0.90;77.00
13458;DHT22;6801;53.018;11.560;2024-01-07T06:46:30;0.80;77.10
13458;DHT22;6801;53.018;11.560;2024-01-07T06:49:00;0.80;77.30
13458;DHT22;6801;53.018;11.560;2024-01-07T06:51:27;0.90;77.60
13458;DHT22;6801;53.018;11.560;2024-01-07T06:53:53;0.90;77.50
13458;DHT22;6801;53.018;11.560;2024-01-07T06:56:20;0.90;77.20
13458;DHT22;6801;53.018;11.560;2024-01-07T06:58:47;0.90;77.00
13458;DHT22;6801;53.018;11.560;2024-01-07T07:01:19;0.90;77.10
13458;DHT22;6801;53.018;11.560;2024-01-07T07:03:46;0.90;77.40
13458;DHT22;6801;53.018;11.560;2024-01-07T07:06:13;0.90;77.60
13458;DHT22;6801;53.018;11.560;2024-01-07T07:08:40;0.90;77.90
13458;DHT22;6801;53.018;11.560;2024-01-07T07:11:07;0.90;77.80
13458;DHT22;6801;53.018;11.560;2024-01-07T07:13:34;0.90;77.80
13458;DHT22;6801;53.018;11.560;2024-01-07T07:16:01;0.90;77.90
13458;DHT22;6801;53.018;11.560;2024-01-07T07:18:29;0.90;77.90
13458;DHT22;6801;53.018;11.560;2024-01-07T07:20:57;0.90;78.00
13458;DHT22;6801;53.018;11.560;2024-01-07T07:23:24;0.90;78.00
13458;DHT22;6801;53.018;11.560;2024-01-07T07:25:51;0.90;78.00
13458;DHT22;6801;53.018;11.560;2024-01-07T07:28:18;0.90;78.10
13458;DHT22;6801;53.018;11.560;2024-01-07T07:30:45;1.00;77.60
13458;DHT22;6801;53.018;11.560;2024-01-07T07:33:12;0.90;77.50
13458;DHT22;6801;53.018;11.560;2024-01-07T07:35:40;0.90;77.60
13458;DHT22;6801;53.018;11.560;2024-01-07T07:38:07;1.00;77.70
13458;DHT22;6801;53.018;11.560;2024-01-07T07:40:34;0.90;77.70
13458;DHT22;6801;53.018;11.560;2024-01-07T07:43:01;1.00;77.80
13458;DHT22;6801;53.018;11.560;2024-01-07T07:45:28;0.90;77.90
13458;DHT22;6801;53.018;11.560;2024-01-07T07:47:55;1.00;78.00
13458;DHT22;6801;53.018;11.560;2024-01-07T07:50:22;1.00;77.70
13458;DHT22;6801;53.018;11.560;2024-01-07T07:52:51;1.00;77.60
13458;DHT22;6801;53.018;11.560;2024-01-07T07:55:19;1.00;77.80
13458;DHT22;6801;53.018;11.560;2024-01-07T07:57:46;1.00;78.00
13458;DHT22;6801;53.018;11.560;2024-01-07T08:00:14;1.00;78.10
13458;DHT22;6801;53.018;11.560;2024-01-07T08:02:41;1.00;77.90
13458;DHT22;6801;53.018;11.560;2024-01-07T08:05:08;1.00;77.90
13458;DHT22;6801;53.018;11.560;2024-01-07T08:07:35;1.00;78.00
13458;DHT22;6801;53.018;11.560;2024-01-07T08:10:04;1.00;78.00
13458;DHT22;6801;53.018;11.560;2024-01-07T08:12:32;1.00;78.20
13458;DHT22;6801;53.018;11.560;2024-01-07T08:14:59;1.00;78.10
13458;DHT22;6801;53.018;11.560;2024-01-07T08:17:25;1.00;78.00
13458;DHT22;6801;53.018;11.560;2024-01-07T08:19:54;1.00;77.90
13458;DHT22;6801;53.018;11.560;2024-01-07T08:22:21;1.00;77.80
13458;DHT22;6801;53.018;11.560;2024-01-07T08:24:48;1.00;78.00
13458;DHT22;6801;53.018;11.560;2024-01-07T08:27:17;1.00;77.80
13458;DHT22;6801;53.018;11.560;2024-01-07T08:29:44;1.00;78.00
13458;DHT22;6801;53.018;11.560;2024-01-07T08:32:11;1.10;77.90
13458;DHT22;6801;53.018;11.560;2024-01-07T08:34:39;1.10;78.10
13458;DHT22;6801;53.018;11.560;2024-01-07T08:37:07;1.10;78.10
13458;DHT22;6801;53.018;11.560;2024-01-07T08:39:34;1.10;78.20
13458;DHT22;6801;53.018;11.560;2024-01-07T08:42:01;1.10;77.90
13458;DHT22;6801;53.018;11.560;2024-01-07T08:44:30;1.10;77.80
13458;DHT22;6801;53.018;11.560;2024-01-07T08:46:57;1.20;78.00
13458;DHT22;6801;53.018;11.560;2024-01-07T08:49:27;1.20;77.90
13458;DHT22;6801;53.018;11.560;2024-01-07T08:51:54;1.20;77.80
13458;DHT22;6801;53.018;11.560;2024-01-07T08:54:22;1.20;77.70
13458;DHT22;6801;53.018;11.560;2024-01-07T08:56:49;1.20;77.50
13458;DHT22;6801;53.018;11.560;2024-01-07T08:59:16;1.30;77.30
13458;DHT22;6801;53.018;11.560;2024-01-07T09:01:45;1.20;77.40
13458;DHT22;6801;53.018;11.560;2024-01-07T09:04:12;1.20;77.40
13458;DHT22;6801;53.018;11.560;2024-01-07T09:06:39;1.20;77.60
13458;DHT22;6801;53.018;11.560;2024-01-07T09:09:06;1.20;77.80
13458;DHT22;6801;53.018;11.560;2024-01-07T09:11:36;1.30;77.40
13458;DHT22;6801;53.018;11.560;2024-01-07T09:14:03;1.30;77.50
13458;DHT22;6801;53.018;11.560;2024-01-07T09:16:30;1.30;77.60
13458;DHT22;6801;53.018;11.560;2024-01-07T09:18:58;1.30;77.50
13458;DHT22;6801;53.018;11.560;2024-01-07T09:21:25;1.30;77.40
13458;DHT22;6801;53.018;11.560;2024-01-07T09:23:52;1.30;77.70
13458;DHT22;6801;53.018;11.560;2024-01-07T09:26:19;1.30;77.50
13458;DHT22;6801;53.018;11.560;2024-01-07T09:28:46;1.30;77.10
13458;DHT22;6801;53.018;11.560;2024-01-07T09:31:13;1.30;77.30
13458;DHT22;6801;53.018;11.560;2024-01-07T09:33:41;1.30;77.50
13458;DHT22;6801;53.018;11.560;2024-01-07T09:36:09;1.30;77.70
13458;DHT22;6801;53.018;11.560;2024-01-07T09:38:37;1.30;78.00
13458;DHT22;6801;53.018;11.560;2024-01-07T09:41:04;1.30;78.00
13458;DHT22;6801;53.018;11.560;2024-01-07T09:43:31;1.30;77.90
13458;DHT22;6801;53.018;11.560;2024-01-07T09:45:59;1.30;77.80
13458;DHT22;6801;53.018;11.560;2024-01-07T09:48:26;1.30;77.80
13458;DHT22;6801;53.018;11.560;2024-01-07T09:50:53;1.40;77.90
13458;DHT22;6801;53.018;11.560;2024-01-07T09:53:25;1.40;78.00
13458;DHT22;6801;53.018;11.560;2024-01-07T09:56:00;1.50;78.10
13458;DHT22;6801;53.018;11.560;2024-01-07T09:58:28;1.50;78.10
13458;DHT22;6801;53.018;11.560;2024-01-07T10:00:55;1.50;78.10
13458;DHT22;6801;53.018;11.560;2024-01-07T10:03:22;1.50;78.10
13458;DHT22;6801;53.018;11.560;2024-01-07T10:05:50;1.50;78.00
13458;DHT22;6801;53.018;11.560;2024-01-07T10:08:17;1.50;78.00
13458;DHT22;6801;53.018;11.560;2024-01-07T10:10:45;1.50;78.00
13458;DHT22;6801;53.018;11.560;2024-01-07T10:13:12;1.50;77.80
13458;DHT22;6801;53.018;11.560;2024-01-07T10:15:39;1.60;77.70
13458;DHT22;6801;53.018;11.560;2024-01-07T10:18:07;1.60;77.70
13458;DHT22;6801;53.018;11.560;2024-01-07T10:20:34;1.50;77.80
13458;DHT22;6801;53.018;11.560;2024-01-07T10:23:02;1.50;78.00
13458;DHT22;6801;53.018;11.560;2024-01-07T10:25:30;1.50;77.90
13458;DHT22;6801;53.018;11.560;2024-01-07T10:28:00;1.60;78.00
13458;DHT22;6801;53.018;11.560;2024-01-07T10:30:28;1.50;78.00
13458;DHT22;6801;53.018;11.560;2024-01-07T10:32:59;1.60;78.10
13458;DHT22;6801;53.018;11.560;2024-01-07T10:35:29;1.60;77.90
13458;DHT22;6801;53.018;11.560;2024-01-07T10:37:56;1.60;77.80
13458;DHT22;6801;53.018;11.560;2024-01-07T10:40:23;1.60;77.90
13458;DHT22;6801;53.018;11.560;2024-01-07T10:42:52;1.60;77.90
13458;DHT22;6801;53.018;11.560;2024-01-07T10:45:22;1.60;78.10
13458;DHT22;6801;53.018;11.560;2024-01-07T10:47:50;1.60;78.10
13458;DHT22;6801;53.018;11.560;2024-01-07T10:50:18;1.70;78.10
13458;DHT22;6801;53.018;11.560;2024-01-07T10:52:49;1.70;78.00
13458;DHT22;6801;53.018;11.560;2024-01-07T10:55:18;1.70;77.80
13458;DHT22;6801;53.018;11.560;2024-01-07T10:57:47;1.70;77.80
13458;DHT22;6801;53.018;11.560;2024-01-07T11:00:16;1.80;77.60
13458;DHT22;6801;53.018;11.560;2024-01-07T11:03:07;1.80;77.60
13458;DHT22;6801;53.018;11.560;2024-01-07T11:05:40;1.80;77.80
13458;DHT22;6801;53.018;11.560;2024-01-07T11:08:15;1.80;77.90
13458;DHT22;6801;53.018;11.560;2024-01-07T11:10:48;1.70;78.00
13458;DHT22;6801;53.018;11.560;2024-01-07T11:13:32;1.70;78.00
13458;DHT22;6801;53.018;11.560;2024-01-07T11:16:01;1.70;78.10
13458;DHT22;6801;53.018;11.560;2024-01-07T11:18:31;1.70;78.10
13458;DHT22;6801;53.018;11.560;2024-01-07T11:21:00;1.80;77.90
13458;DHT22;6801;53.018;11.560;2024-01-07T11:23:30;1.70;77.90
13458;DHT22;6801;53.018;11.560;2024-01-07T11:25:57;1.80;78.00
13458;DHT22;6801;53.018;11.560;2024-01-07T11:28:47;1.80;78.00
13458;DHT22;6801;53.018;11.560;2024-01-07T11:31:15;1.80;77.70
13458;DHT22;6801;53.018;11.560;2024-01-07T11:33:45;1.80;77.60
13458;DHT22;6801;53.018;11.560;2024-01-07T11:36:13;1.80;77.60
13458;DHT22;6801;53.018;11.560;2024-01-07T11:38:43;1.80;77.60
13458;DHT22;6801;53.018;11.560;2024-01-07T11:41:12;1.90;77.30
13458;DHT22;6801;53.018;11.560;2024-01-07T11:43:52;1.80;77.30
13458;DHT22;6801;53.018;11.560;2024-01-07T11:46:20;1.80;77.30
13458;DHT22;6801;53.018;11.560;2024-01-07T11:48:49;1.80;77.60
13458;DHT22;6801;53.018;11.560;2024-01-07T11:51:17;1.80;77.60
13458;DHT22;6801;53.018;11.560;2024-01-07T11:53:47;1.80;77.70
13458;DHT22;6801;53.018;11.560;2024-01-07T11:56:14;1.80;78.10
13458;DHT22;6801;53.018;11.560;2024-01-07T11:58:41;1.80;77.60
13458;DHT22;6801;53.018;11.560;2024-01-07T12:01:08;1.80;77.80
13458;DHT22;6801;53.018;11.560;2024-01-07T12:03:35;1.70;78.00
13458;DHT22;6801;53.018;11.560;2024-01-07T12:06:04;1.80;78.00
13458;DHT22;6801;53.018;11.560;2024-01-07T12:08:31;1.70;77.90
13458;DHT22;6801;53.018;11.560;2024-01-07T12:10:59;1.70;77.90
13458;DHT22;6801;53.018;11.560;2024-01-07T12:13:26;1.70;77.70
13458;DHT22;6801;53.018;11.560;2024-01-07T12:15:53;1.80;78.00
13458;DHT22;6801;53.018;11.560;2024-01-07T12:18:21;1.80;77.90
13458;DHT22;6801;53.018;11.560;2024-01-07T12:20:56;1.80;77.70
13458;DHT22;6801;53.018;11.560;2024-01-07T12:23:25;1.80;77.80
13458;DHT22;6801;53.018;11.560;2024-01-07T12:25:53;1.80;78.00
13458;DHT22;6801;53.018;11.560;2024-01-07T12:28:21;1.80;78.00
13458;DHT22;6801;53.018;11.560;2024-01-07T12:30:48;1.90;77.30
13458;DHT22;6801;53.018;11.560;2024-01-07T12:33:17;1.90;77.30
13458;DHT22;6801;53.018;11.560;2024-01-07T12:35:45;1.90;77.20
13458;DHT22;6801;53.018;11.560;2024-01-07T12:38:12;1.90;76.90
13458;DHT22;6801;53.018;11.560;2024-01-07T12:40:40;1.80;77.30
13458;DHT22;6801;53.018;11.560;2024-01-07T12:43:07;1.80;77.30
13458;DHT22;6801;53.018;11.560;2024-01-07T12:45:34;1.80;77.10
13458;DHT22;6801;53.018;11.560;2024-01-07T12:48:01;1.80;77.10
13458;DHT22;6801;53.018;11.560;2024-01-07T12:50:29;1.70;76.90
13458;DHT22;6801;53.018;11.560;2024-01-07T12:52:57;1.80;76.80
13458;DHT22;6801;53.018;11.560;2024-01-07T12:55:24;1.80;76.80
13458;DHT22;6801;53.018;11.560;2024-01-07T12:57:53;1.80;76.90
13458;DHT22;6801;53.018;11.560;2024-01-07T13:00:21;1.80;77.20
13458;DHT22;6801;53.018;11.560;2024-01-07T13:02:48;1.80;77.60
13458;DHT22;6801;53.018;11.560;2024-01-07T13:05:16;1.80;77.80
13458;DHT22;6801;53.018;11.560;2024-01-07T13:07:43;1.80;78.00
13458;DHT22;6801;53.018;11.560;2024-01-07T13:10:10;1.80;78.10
13458;DHT22;6801;53.018;11.560;2024-01-07T13:12:38;1.80;78.00
13458;DHT22;6801;53.018;11.560;2024-01-07T13:15:08;1.80;78.10
13458;DHT22;6801;53.018;11.560;2024-01-07T13:17:37;1.80;78.10
13458;DHT22;6801;53.018;11.560;2024-01-07T13:20:05;1.90;77.90
13458;DHT22;6801;53.018;11.560;2024-01-07T13:22:37;2.00;77.60
13458;DHT22;6801;53.018;11.560;2024-01-07T13:25:05;2.10;76.90
13458;DHT22;6801;53.018;11.560;2024-01-07T13:27:33;2.10;76.00
13458;DHT22;6801;53.018;11.560;2024-01-07T13:30:00;2.00;76.00
13458;DHT22;6801;53.018;11.560;2024-01-07T13:32:29;2.00;76.60
13458;DHT22;6801;53.018;11.560;2024-01-07T13:34:56;2.00;76.90
13458;DHT22;6801;53.018;11.560;2024-01-07T13:37:23;2.00;76.90
13458;DHT22;6801;53.018;11.560;2024-01-07T13:39:51;2.00;76.90
13458;DHT22;6801;53.018;11.560;2024-01-07T13:42:18;2.00;76.90
13458;DHT22;6801;53.018;11.560;2024-01-07T13:44:45;2.00;77.10
13458;DHT22;6801;53.018;11.560;2024-01-07T13:47:12;2.00;77.00
13458;DHT22;6801;53.018;11.560;2024-01-07T13:49:41;2.10;77.10
13458;DHT22;6801;53.018;11.560;2024-01-07T13:52:10;2.10;76.90
13458;DHT22;6801;53.018;11.560;2024-01-07T13:54:37;2.10;76.90
13458;DHT22;6801;53.018;11.560;2024-01-07T13:57:04;2.10;76.80
13458;DHT22;6801;53.018;11.560;2024-01-07T13:59:33;2.10;76.90
13458;DHT22;6801;53.018;11.560;2024-01-07T14:02:01;2.10;76.90
13458;DHT22;6801;53.018;11.560;2024-01-07T14:04:28;2.00;76.90
13458;DHT22;6801;53.018;11.560;2024-01-07T14:06:56;2.10;76.80
13458;DHT22;6801;53.018;11.560;2024-01-07T14:09:24;2.00;76.90
13458;DHT22;6801;53.018;11.560;2024-01-07T14:11:52;2.10;76.60
13458;DHT22;6801;53.018;11.560;2024-01-07T14:14:19;2.00;76.70
13458;DHT22;6801;53.018;11.560;2024-01-07T14:16:47;2.00;76.70
13458;DHT22;6801;53.018;11.560;2024-01-07T14:19:16;2.00;76.60
13458;DHT22;6801;53.018;11.560;2024-01-07T14:21:44;2.10;76.30
13458;DHT22;6801;53.018;11.560;2024-01-07T14:24:13;2.10;75.60
13458;DHT22;6801;53.018;11.560;2024-01-07T14:26:41;2.10;75.40
13458;DHT22;6801;53.018;11.560;2024-01-07T14:29:08;2.00;75.70
13458;DHT22;6801;53.018;11.560;2024-01-07T14:31:36;2.00;76.10
13458;DHT22;6801;53.018;11.560;2024-01-07T14:34:03;2.00;76.10
13458;DHT22;6801;53.018;11.560;2024-01-07T14:36:30;2.00;76.20
13458;DHT22;6801;53.018;11.560;2024-01-07T14:38:57;2.00;75.60
13458;DHT22;6801;53.018;11.560;2024-01-07T14:41:26;2.00;76.00
13458;DHT22;6801;53.018;11.560;2024-01-07T14:43:54;2.00;75.80
13458;DHT22;6801;53.018;11.560;2024-01-07T14:46:21;2.00;76.00
13458;DHT22;6801;53.018;11.560;2024-01-07T14:48:50;2.00;75.90
13458;DHT22;6801;53.018;11.560;2024-01-07T14:51:17;2.00;75.60
13458;DHT22;6801;53.018;11.560;2024-01-07T14:53:45;2.00;75.70
13458;DHT22;6801;53.018;11.560;2024-01-07T14:56:12;2.00;75.60
13458;DHT22;6801;53.018;11.560;2024-01-07T14:58:41;2.00;75.00
13458;DHT22;6801;53.018;11.560;2024-01-07T15:01:08;1.90;74.80
13458;DHT22;6801;53.018;11.560;2024-01-07T15:03:35;1.90;74.80
13458;DHT22;6801;53.018;11.560;2024-01-07T15:06:02;2.00;75.20
13458;DHT22;6801;53.018;11.560;2024-01-07T15:08:29;2.00;75.30
13458;DHT22;6801;53.018;11.560;2024-01-07T15:10:56;1.90;75.20
13458;DHT22;6801;53.018;11.560;2024-01-07T15:13:23;1.90;75.30
13458;DHT22;6801;53.018;11.560;2024-01-07T15:15:53;1.90;74.90
13458;DHT22;6801;53.018;11.560;2024-01-07T15:18:20;1.90;75.10
13458;DHT22;6801;53.018;11.560;2024-01-07T15:20:47;1.90;75.00
13458;DHT22;6801;53.018;11.560;2024-01-07T15:23:14;1.80;74.30
13458;DHT22;6801;53.018;11.560;2024-01-07T15:25:42;1.80;74.40
13458;DHT22;6801;53.018;11.560;2024-01-07T15:28:10;1.80;74.50
13458;DHT22;6801;53.018;11.560;2024-01-07T15:30:38;1.80;73.90
13458;DHT22;6801;53.018;11.560;2024-01-07T15:33:07;1.80;74.50
13458;DHT22;6801;53.018;11.560;2024-01-07T15:35:34;1.80;73.00
13458;DHT22;6801;53.018;11.560;2024-01-07T15:38:01;1.80;73.40
13458;DHT22;6801;53.018;11.560;2024-01-07T15:40:28;1.70;73.80
13458;DHT22;6801;53.018;11.560;2024-01-07T15:42:56;1.70;74.50
13458;DHT22;6801;53.018;11.560;2024-01-07T15:45:23;1.70;75.00
13458;DHT22;6801;53.018;11.560;2024-01-07T15:47:50;1.70;75.10